Time;durP1;ratioP1;P1;durP2;ratioP2;P2;SDS_P1;SDS_P2;PMS_P1;PMS_P2;Temp;Humidity;BMP_temperature;BMP_pressure;BME280_temperature;BME280_humidity;BME280_pressure;Samples;Min_cycle;Max_cycle;Signal;HPM_P1;HPM_P2
2023/06/20 00:00:09;;;;;;;3.17;2.80;;;;;;;23.95;67.72;95321.59;6154893;23;20182;-88
2023/06/20 00:02:36;;;;;;;3.30;3.03;;;;;;;23.91;67.34;95316.06;6153002;23;20678;-88
2023/06/20 00:05:04;;;;;;;3.50;2.67;;;;;;;24.00;66.86;95326.84;6152350;23;20186;-89
2023/06/20 00:07:31;;;;;;;3.13;2.90;;;;;;;24.08;66.33;95332.34;6152523;23;20246;-88
2023/06/20 00:09:57;;;;;;;3.45;2.92;;;;;;;23.76;69.29;95332.66;6152302;23;20195;-88
2023/06/20 00:12:24;;;;;;;3.53;2.80;;;;;;;23.68;69.53;95337.66;6152365;23;20179;-89
2023/06/20 00:14:52;;;;;;;3.13;2.88;;;;;;;23.58;69.93;95330.59;6152436;23;20182;-88
2023/06/20 00:17:18;;;;;;;3.33;3.10;;;;;;;23.41;70.65;95332.66;6151852;23;20210;-88
2023/06/20 00:19:44;;;;;;;3.67;3.38;;;;;;;23.14;72.32;95321.59;6151692;23;20186;-89
2023/06/20 00:22:11;;;;;;;3.30;3.00;;;;;;;23.20;70.90;95331.09;6152496;23;20179;-88
2023/06/20 00:24:37;;;;;;;3.45;3.17;;;;;;;23.27;71.73;95332.41;6152035;23;20661;-89
2023/06/20 00:27:04;;;;;;;4.63;2.80;;;;;;;23.13;72.60;95323.44;6152487;23;20191;-88
2023/06/20 00:29:31;;;;;;;3.55;3.25;;;;;;;22.90;73.61;95321.34;6152649;23;20202;-89
2023/06/20 00:31:58;;;;;;;3.67;3.38;;;;;;;22.71;75.37;95316.50;6152584;23;20175;-88
2023/06/20 00:34:25;;;;;;;3.40;3.20;;;;;;;22.85;74.62;95316.06;6151677;23;20182;-88
2023/06/20 00:36:51;;;;;;;3.45;3.10;;;;;;;22.90;74.81;95311.59;6152504;23;20210;-88
2023/06/20 00:39:18;;;;;;;3.72;3.42;;;;;;;23.07;74.78;95306.13;6152692;23;20179;-88
2023/06/20 00:41:44;;;;;;;3.78;3.47;;;;;;;23.05;74.09;95305.59;6152499;23;20179;-88
2023/06/20 00:44:11;;;;;;;4.03;3.65;;;;;;;22.77;75.59;95303.41;6152865;23;20179;-88
2023/06/20 00:46:41;;;;;;;5.82;3.20;;;;;;;22.88;73.83;95312.94;6152832;23;20199;-88
2023/06/20 00:49:10;;;;;;;3.72;3.40;;;;;;;22.87;73.96;95306.88;6153213;23;20207;-88
2023/06/20 00:51:38;;;;;;;2.97;2.78;;;;;;;22.68;75.18;95305.75;6152756;23;20711;-88
2023/06/20 00:54:05;;;;;;;3.58;3.33;;;;;;;22.62;74.57;95304.16;6152113;23;20182;-89
2023/06/20 00:56:32;;;;;;;3.70;3.40;;;;;;;22.67;74.75;95304.19;6152317;23;20199;-88
2023/06/20 00:58:58;;;;;;;3.83;3.05;;;;;;;22.79;74.64;95310.00;6153093;23;20159;-88
2023/06/20 01:01:27;;;;;;;4.20;3.80;;;;;;;22.88;73.94;95312.94;6152886;23;20475;-88
2023/06/20 01:03:53;;;;;;;3.65;3.35;;;;;;;22.86;74.73;95313.19;6152278;23;20179;-88
2023/06/20 01:06:32;;;;;;;5.80;5.25;;;;;;;22.83;75.30;95326.81;6152085;23;20199;-89
2023/06/20 01:09:05;;;;;;;5.00;4.32;;;;;;;22.94;73.45;95330.25;6153281;23;20179;-88
2023/06/20 01:11:38;;;;;;;3.65;3.40;;;;;;;22.97;74.00;95334.97;6153120;23;20185;-89
2023/06/20 01:14:15;;;;;;;3.78;3.38;;;;;;;22.98;73.95;95329.47;6152426;23;20170;-88
2023/06/20 01:16:51;;;;;;;4.13;3.72;;;;;;;22.71;75.73;95316.50;6152721;23;20199;-88
2023/06/20 01:19:36;;;;;;;5.45;3.60;;;;;;;22.45;77.28;95316.72;6152777;23;20179;-88
2023/06/20 01:22:13;;;;;;;3.88;3.58;;;;;;;22.33;77.90;95320.31;6152081;23;20223;-88
2023/06/20 01:24:46;;;;;;;4.13;3.67;;;;;;;22.47;77.41;95327.75;6152446;23;20163;-88
2023/06/20 01:27:19;;;;;;;4.32;3.63;;;;;;;22.65;76.86;95324.66;6152844;23;20198;-88
2023/06/20 01:29:55;;;;;;;4.15;3.75;;;;;;;22.57;77.81;95331.19;6152351;23;20179;-89
2023/06/20 01:32:24;;;;;;;4.13;3.83;;;;;;;22.77;75.13;95332.28;6152072;23;20250;-89
2023/06/20 01:34:58;;;;;;;3.70;3.50;;;;;;;22.80;75.52;95327.34;6152972;23;20174;-88
2023/06/20 01:37:25;;;;;;;4.68;3.90;;;;;;;22.88;74.95;95337.34;6152090;23;20206;-88
2023/06/20 01:39:57;;;;;;;4.95;3.72;;;;;;;23.03;74.12;95331.31;6151614;23;20251;-88
2023/06/20 01:42:26;;;;;;;5.50;3.40;;;;;;;23.16;74.03;95338.69;6151733;23;20163;-88
2023/06/20 01:44:54;;;;;;;4.22;3.75;;;;;;;23.28;73.14;95349.75;6152137;23;20185;-88
2023/06/20 01:47:23;;;;;;;3.90;3.60;;;;;;;23.30;73.29;95352.88;6152256;23;20534;-88
2023/06/20 01:49:52;;;;;;;3.80;3.50;;;;;;;23.27;73.74;95353.44;6151964;23;20198;-88
2023/06/20 01:52:19;;;;;;;3.65;3.45;;;;;;;23.19;74.46;95345.25;6152023;23;20244;-89
2023/06/20 01:54:48;;;;;;;3.90;3.60;;;;;;;23.24;74.18;95348.69;6151326;23;20282;-88
2023/06/20 01:57:18;;;;;;;3.97;3.60;;;;;;;23.32;73.90;95356.03;6152078;23;20194;-88
2023/06/20 01:59:45;;;;;;;3.17;2.95;;;;;;;23.39;73.37;95364.47;6151898;23;20194;-88
2023/06/20 02:02:13;;;;;;;4.35;3.65;;;;;;;23.41;73.08;95370.25;6151537;23;20187;-89
2023/06/20 02:04:41;;;;;;;5.32;3.85;;;;;;;23.42;73.15;95365.78;6151735;23;20186;-88
2023/06/20 02:07:11;;;;;;;4.10;3.80;;;;;;;23.31;73.17;95367.59;6150624;23;20202;-88
2023/06/20 02:09:38;;;;;;;4.13;3.72;;;;;;;23.13;74.63;95367.31;6151500;23;20199;-88
2023/06/20 02:12:08;;;;;;;3.83;3.53;;;;;;;22.99;75.72;95375.69;6150627;23;20226;-88
2023/06/20 02:14:37;;;;;;;4.50;3.90;;;;;;;23.05;74.78;95379.13;6151337;23;20178;-88
2023/06/20 02:17:06;;;;;;;4.03;3.72;;;;;;;23.12;75.41;95394.63;6150943;23;20198;-88
2023/06/20 02:19:33;;;;;;;4.70;3.67;;;;;;;23.22;73.87;95392.81;6151640;23;20521;-88
2023/06/20 02:22:04;;;;;;;3.65;3.35;;;;;;;23.32;73.43;95418.31;6150589;23;20579;-88
2023/06/20 02:24:32;;;;;;;3.78;3.47;;;;;;;23.27;73.51;95468.25;6151485;23;20171;-88
2023/06/20 02:27:00;;;;;;;4.70;4.30;;;;;;;22.98;74.42;95510.66;6151022;23;20205;-89
2023/06/20 02:29:30;;;;;;;5.00;4.50;;;;;;;22.87;74.64;95480.19;6152692;23;20199;-88
2023/06/20 02:32:01;;;;;;;4.50;4.10;;;;;;;22.82;74.96;95506.41;6151823;23;20179;-88
2023/06/20 02:34:29;;;;;;;4.40;4.10;;;;;;;22.84;74.62;95506.94;6152150;23;20633;-88
2023/06/20 02:36:58;;;;;;;4.70;4.18;;;;;;;22.83;74.25;95500.09;6151281;23;20195;-89
2023/06/20 02:39:24;;;;;;;4.53;4.13;;;;;;;22.90;73.81;95502.50;6151874;23;20182;-88
2023/06/20 02:41:51;;;;;;;4.45;4.05;;;;;;;22.90;73.86;95502.50;6151117;23;20205;-88
2023/06/20 02:44:17;;;;;;;4.30;3.95;;;;;;;22.93;73.93;95502.75;6151427;23;20665;-88
2023/06/20 02:46:56;;;;;;;4.45;4.00;;;;;;;22.98;73.26;95512.50;6151985;23;20203;-89
2023/06/20 02:49:33;;;;;;;4.35;4.03;;;;;;;22.90;73.63;95502.50;6151933;23;20185;-88
2023/06/20 02:52:06;;;;;;;4.72;4.10;;;;;;;22.89;73.32;95514.84;6152004;23;20166;-88
2023/06/20 02:54:42;;;;;;;5.57;4.13;;;;;;;22.86;73.20;95514.56;6151788;23;20216;-88
2023/06/20 02:57:12;;;;;;;4.80;4.40;;;;;;;22.87;72.88;95519.56;6151446;23;20198;-88
2023/06/20 02:59:43;;;;;;;4.32;3.95;;;;;;;22.72;72.04;95525.47;6152784;23;20179;-88
2023/06/20 03:02:13;;;;;;;5.00;4.60;;;;;;;22.79;71.57;95532.38;6151655;23;20159;-88
2023/06/20 03:04:44;;;;;;;4.22;3.92;;;;;;;22.74;71.68;95530.47;6152655;23;20175;-89
2023/06/20 03:07:11;;;;;;;4.22;3.92;;;;;;;22.74;72.16;95535.72;6151440;23;20199;-88
2023/06/20 03:09:38;;;;;;;4.70;4.30;;;;;;;22.67;71.64;95545.66;6152041;23;20793;-88
2023/06/20 03:12:06;;;;;;;4.55;4.15;;;;;;;22.67;70.53;95548.28;6151709;23;20185;-88
2023/06/20 03:14:33;;;;;;;4.20;3.90;;;;;;;22.66;69.98;95541.47;6151674;23;20181;-88
2023/06/20 03:17:00;;;;;;;4.80;4.13;;;;;;;22.68;69.61;95539.38;6152763;23;20249;-88
2023/06/20 03:19:26;;;;;;;4.00;3.70;;;;;;;22.61;69.57;95547.47;6153833;23;20194;-88
2023/06/20 03:21:56;;;;;;;4.70;4.22;;;;;;;22.60;69.04;95550.34;6153442;23;20174;-88
2023/06/20 03:24:22;;;;;;;4.95;4.38;;;;;;;22.61;69.03;95555.34;6153737;23;20179;-88
2023/06/20 03:26:49;;;;;;;4.40;4.00;;;;;;;22.62;68.37;95554.28;6153793;23;20195;-88
2023/06/20 03:29:15;;;;;;;5.03;4.20;;;;;;;22.69;68.21;95559.34;6154135;23;20198;-88
2023/06/20 03:31:42;;;;;;;4.45;4.05;;;;;;;22.71;68.10;95562.47;6152391;23;20550;-88
2023/06/20 03:34:08;;;;;;;4.28;3.97;;;;;;;22.69;67.71;95568.00;6154454;23;20178;-88
2023/06/20 03:36:34;;;;;;;4.68;4.20;;;;;;;22.67;68.02;95574.53;6153668;23;20199;-88
2023/06/20 03:39:02;;;;;;;4.28;3.97;;;;;;;22.72;67.38;95567.47;6153996;23;20175;-88
2023/06/20 03:41:29;;;;;;;4.40;4.10;;;;;;;22.69;67.60;95573.25;6153928;23;20223;-88
2023/06/20 03:43:55;;;;;;;4.68;4.28;;;;;;;22.72;67.34;95579.81;6153622;23;20182;-88
2023/06/20 03:46:22;;;;;;;4.43;4.13;;;;;;;22.72;67.21;95579.81;6153120;23;20547;-88
2023/06/20 03:48:48;;;;;;;4.55;4.15;;;;;;;22.75;66.82;95571.44;6153112;23;20183;-88
2023/06/20 03:51:15;;;;;;;5.18;4.20;;;;;;;22.74;67.18;95577.72;6152807;23;20201;-88
2023/06/20 03:53:41;;;;;;;4.90;4.50;;;;;;;22.73;67.37;95591.88;6153004;23;20179;-88
2023/06/20 03:56:10;;;;;;;4.63;4.22;;;;;;;22.77;67.06;95593.00;6153032;23;20195;-88
2023/06/20 03:58:37;;;;;;;4.70;4.30;;;;;;;22.83;67.24;95597.25;6153822;23;20179;-88
2023/06/20 04:01:06;;;;;;;5.75;3.95;;;;;;;22.87;67.10;95594.91;6152911;23;20206;-88
2023/06/20 04:03:35;;;;;;;4.88;4.47;;;;;;;22.86;66.95;95596.75;6152265;23;20190;-88
2023/06/20 04:06:03;;;;;;;5.90;4.20;;;;;;;22.89;66.79;95598.09;6153069;23;20199;-88
2023/06/20 04:08:30;;;;;;;4.70;4.30;;;;;;;22.93;67.11;95592.03;6151654;23;20178;-88
2023/06/20 04:10:56;;;;;;;4.63;4.22;;;;;;;22.98;66.86;95592.09;6152107;23;20194;-88
2023/06/20 04:13:24;;;;;;;4.68;4.28;;;;;;;23.00;66.96;95592.63;6153095;23;20179;-88
2023/06/20 04:15:51;;;;;;;4.50;4.13;;;;;;;23.02;67.03;95595.78;6151523;23;20195;-89
2023/06/20 04:18:17;;;;;;;4.97;4.47;;;;;;;23.02;66.69;95598.41;6152451;23;20187;-88
2023/06/20 04:20:44;;;;;;;4.43;4.13;;;;;;;23.03;66.71;95601.84;6151844;23;20171;-88
2023/06/20 04:23:10;;;;;;;5.10;4.47;;;;;;;22.95;67.36;95607.56;6152126;23;20237;-88
2023/06/20 04:25:36;;;;;;;4.85;4.45;;;;;;;22.90;67.95;95599.66;6152532;23;20218;-88
2023/06/20 04:28:03;;;;;;;4.63;4.28;;;;;;;22.92;67.68;95597.56;6151586;23;20183;-88
2023/06/20 04:30:32;;;;;;;5.40;4.20;;;;;;;22.98;67.77;95605.22;6152483;23;20205;-88
2023/06/20 04:32:58;;;;;;;5.00;4.60;;;;;;;23.02;67.06;95600.25;6152194;23;20639;-87
2023/06/20 04:35:24;;;;;;;5.60;5.07;;;;;;;23.02;67.12;95597.63;6151889;23;20495;-88
2023/06/20 04:37:52;;;;;;;5.78;4.60;;;;;;;23.02;67.29;95602.88;6152037;23;20670;-87
2023/06/20 04:40:18;;;;;;;4.82;4.38;;;;;;;23.02;67.00;95593.16;6152230;23;20548;-88
2023/06/20 04:42:46;;;;;;;4.88;4.47;;;;;;;23.00;67.37;95599.72;6152363;23;20673;-88
2023/06/20 04:45:12;;;;;;;5.50;4.70;;;;;;;22.97;68.39;95601.00;6151908;23;20183;-87
2023/06/20 04:47:42;;;;;;;6.53;4.68;;;;;;;22.89;68.62;95598.09;6152127;23;20181;-88
2023/06/20 04:50:09;;;;;;;8.60;5.55;;;;;;;22.83;68.64;95596.47;6152534;23;20195;-88
2023/06/20 04:52:35;;;;;;;5.07;4.68;;;;;;;22.83;69.21;95583.34;6152047;23;20181;-88
2023/06/20 04:55:02;;;;;;;5.40;4.88;;;;;;;22.84;68.90;95585.72;6152034;23;20182;-89
2023/06/20 04:57:29;;;;;;;4.82;4.43;;;;;;;22.96;68.38;95588.13;6150745;23;20528;-89
2023/06/20 04:59:55;;;;;;;4.88;4.45;;;;;;;23.06;67.92;95591.63;6151637;23;20179;-89
2023/06/20 05:02:22;;;;;;;5.97;4.63;;;;;;;23.15;67.54;95594.53;6150874;23;20171;-89
2023/06/20 05:04:50;;;;;;;4.60;4.30;;;;;;;23.27;67.20;95602.22;6151663;23;20179;-88
2023/06/20 05:07:16;;;;;;;6.03;4.32;;;;;;;23.43;66.54;95609.94;6150586;23;20208;-89
2023/06/20 05:09:43;;;;;;;5.68;4.35;;;;;;;23.56;65.88;95613.94;6151163;23;20203;-89
2023/06/20 05:12:10;;;;;;;4.53;4.15;;;;;;;23.59;65.92;95618.69;6151235;23;20289;-89
2023/06/20 05:14:38;;;;;;;4.70;4.30;;;;;;;23.66;65.69;95616.63;6151294;23;20171;-89
2023/06/20 05:17:05;;;;;;;4.68;4.28;;;;;;;23.60;65.34;95619.47;6151121;23;20287;-88
2023/06/20 05:19:32;;;;;;;4.53;4.13;;;;;;;23.59;65.41;95618.69;6151665;23;20183;-88
2023/06/20 05:22:00;;;;;;;4.55;4.15;;;;;;;23.67;65.02;95612.91;6150908;23;20175;-89
2023/06/20 05:24:27;;;;;;;4.63;4.22;;;;;;;23.75;64.69;95619.53;6150940;23;20182;-89
2023/06/20 05:26:53;;;;;;;5.63;4.28;;;;;;;23.92;64.04;95608.78;6151095;23;20195;-88
2023/06/20 05:29:20;;;;;;;5.03;4.35;;;;;;;23.99;64.16;95615.41;6151114;23;20714;-89
2023/06/20 05:31:46;;;;;;;4.07;3.78;;;;;;;23.92;63.33;95627.19;6151150;23;20354;-89
2023/06/20 05:34:13;;;;;;;7.40;6.13;;;;;;;23.88;63.78;95607.72;6151555;23;20261;-89
2023/06/20 05:36:39;;;;;;;4.20;3.90;;;;;;;23.98;63.50;95619.06;6150885;23;20194;-89
2023/06/20 05:39:08;;;;;;;4.95;4.35;;;;;;;24.08;63.58;95619.09;6150878;23;20171;-89
2023/06/20 05:41:35;;;;;;;4.40;4.00;;;;;;;24.13;63.11;95615.69;6150374;23;20178;-89
2023/06/20 05:44:01;;;;;;;4.10;3.80;;;;;;;24.20;62.53;95621.50;6151252;23;20175;-89
2023/06/20 05:46:28;;;;;;;4.35;4.00;;;;;;;24.29;62.31;95627.84;6150806;23;20691;-88
2023/06/20 05:48:59;;;;;;;4.00;3.70;;;;;;;24.23;62.63;95623.59;6151415;23;20186;-88
2023/06/20 05:51:27;;;;;;;6.68;4.05;;;;;;;24.15;63.11;95628.56;6150459;23;20249;-88
2023/06/20 05:53:57;;;;;;;3.90;3.60;;;;;;;24.13;63.20;95634.09;6150891;23;20174;-88
2023/06/20 05:56:25;;;;;;;4.22;3.92;;;;;;;24.11;63.55;95636.97;6149378;23;20195;-88
2023/06/20 05:58:51;;;;;;;3.90;3.60;;;;;;;24.21;63.50;95633.59;6150699;23;20179;-88
2023/06/20 06:01:18;;;;;;;3.92;3.63;;;;;;;24.32;63.51;95634.41;6151300;23;20175;-88
2023/06/20 06:03:48;;;;;;;3.53;3.33;;;;;;;24.46;62.51;95627.56;6151106;23;20186;-88
2023/06/20 06:06:15;;;;;;;3.80;3.50;;;;;;;24.55;62.38;95622.59;6150853;23;20586;-88
2023/06/20 06:08:41;;;;;;;3.90;3.60;;;;;;;24.44;62.63;95619.16;6150277;23;20175;-88
2023/06/20 06:11:08;;;;;;;4.50;4.03;;;;;;;24.50;62.29;95619.94;6151110;23;20206;-88
2023/06/20 06:13:38;;;;;;;3.75;3.45;;;;;;;24.40;62.46;95618.13;6150525;23;20179;-88
2023/06/20 06:16:04;;;;;;;3.88;3.58;;;;;;;24.33;62.52;95610.47;6151155;23;20205;-89
2023/06/20 06:18:31;;;;;;;3.45;3.25;;;;;;;24.34;62.79;95601.53;6151164;23;20186;-89
2023/06/20 06:20:57;;;;;;;4.07;3.70;;;;;;;24.40;62.17;95612.84;6150653;23;20174;-89
2023/06/20 06:23:24;;;;;;;4.85;4.45;;;;;;;24.32;62.84;95608.09;6150833;23;20182;-88
2023/06/20 06:25:52;;;;;;;4.53;4.13;;;;;;;24.37;63.31;95603.63;6150345;23;20229;-88
2023/06/20 06:28:18;;;;;;;4.57;4.18;;;;;;;24.49;62.92;95611.25;6150041;23;20526;-88
2023/06/20 06:30:46;;;;;;;5.78;5.28;;;;;;;24.53;63.19;95614.16;6150523;23;20198;-88
2023/06/20 06:33:19;;;;;;;6.22;5.70;;;;;;;24.52;63.37;95615.22;6150828;23;20257;-88
2023/06/20 06:35:46;;;;;;;4.18;3.78;;;;;;;24.57;62.76;95623.13;6150969;23;20277;-89
2023/06/20 06:38:13;;;;;;;4.32;3.92;;;;;;;24.62;62.49;95623.13;6150747;23;20350;-89
2023/06/20 06:40:40;;;;;;;3.85;3.55;;;;;;;24.66;62.20;95613.63;6151026;23;20171;-89
2023/06/20 06:43:06;;;;;;;4.63;4.22;;;;;;;24.74;61.85;95613.09;6151637;23;20178;-88
2023/06/20 06:45:33;;;;;;;4.38;3.95;;;;;;;24.70;62.39;95604.94;6151151;23;20219;-89
2023/06/20 06:48:01;;;;;;;4.40;3.95;;;;;;;24.65;62.63;95612.03;6150945;23;20493;-90
2023/06/20 06:50:27;;;;;;;4.45;3.92;;;;;;;24.61;61.87;95605.75;6150579;23;20642;-88
2023/06/20 06:52:54;;;;;;;4.00;3.47;;;;;;;24.61;61.73;95608.38;6151210;23;20179;-89
2023/06/20 06:55:20;;;;;;;4.00;3.60;;;;;;;24.60;62.11;95604.16;6150600;23;20511;-88
2023/06/20 06:57:47;;;;;;;5.13;3.78;;;;;;;24.54;62.07;95613.91;6149552;23;20176;-89
2023/06/20 07:00:14;;;;;;;4.47;4.07;;;;;;;24.55;62.33;95606.78;6150154;23;20175;-89
2023/06/20 07:03:04;;;;;;;5.13;3.78;;;;;;;24.58;62.03;95598.38;6149777;23;20178;-89
2023/06/20 07:05:32;;;;;;;3.72;3.42;;;;;;;24.62;61.85;95597.59;6150484;23;20194;-89
2023/06/20 07:07:59;;;;;;;3.85;3.55;;;;;;;24.62;61.64;95591.53;6150031;23;20175;-88
2023/06/20 07:10:25;;;;;;;3.45;3.25;;;;;;;24.61;61.16;95590.75;6149916;23;20681;-89
2023/06/20 07:12:51;;;;;;;4.03;3.63;;;;;;;24.65;61.16;95588.34;6150805;23;20209;-88
2023/06/20 07:15:18;;;;;;;4.18;3.80;;;;;;;24.51;61.58;95587.31;6150371;23;20225;-89
2023/06/20 07:17:44;;;;;;;4.10;3.60;;;;;;;24.55;61.92;95583.09;6149260;23;20660;-88
2023/06/20 07:20:12;;;;;;;4.20;3.80;;;;;;;24.35;62.92;95568.91;6150511;23;20160;-89
2023/06/20 07:22:39;;;;;;;5.50;4.28;;;;;;;24.24;63.29;95569.94;6150773;23;20660;-89
2023/06/20 07:25:07;;;;;;;4.30;3.90;;;;;;;24.24;63.17;95562.06;6150706;23;20515;-88
2023/06/20 07:27:34;;;;;;;5.45;4.93;;;;;;;24.17;63.83;95569.38;6150693;23;20205;-88
2023/06/20 07:30:00;;;;;;;4.30;4.00;;;;;;;24.24;64.12;95561.28;6150784;23;20179;-88
2023/06/20 07:32:27;;;;;;;4.72;4.30;;;;;;;24.37;63.13;95564.16;6150046;23;20181;-88
2023/06/20 07:34:53;;;;;;;4.30;3.90;;;;;;;24.35;62.63;95555.72;6149551;23;20178;-88
2023/06/20 07:37:20;;;;;;;5.32;4.22;;;;;;;24.39;63.33;95545.47;6150763;23;20202;-88
2023/06/20 07:39:48;;;;;;;4.13;3.80;;;;;;;24.36;62.21;95543.38;6150519;23;20197;-88
2023/06/20 07:42:14;;;;;;;4.28;3.80;;;;;;;24.47;62.38;95549.41;6150413;23;20175;-88
2023/06/20 07:44:41;;;;;;;3.60;3.38;;;;;;;24.55;62.28;95554.94;6150414;23;20174;-89
2023/06/20 07:47:08;;;;;;;4.43;4.03;;;;;;;24.65;62.31;95552.28;6150146;23;20274;-89
2023/06/20 07:49:36;;;;;;;5.82;3.97;;;;;;;24.69;62.35;95557.81;6149841;23;20174;-89
2023/06/20 07:52:04;;;;;;;4.72;4.20;;;;;;;24.87;62.37;95551.97;6150550;23;20214;-88
2023/06/20 07:54:34;;;;;;;7.78;3.97;;;;;;;25.06;61.44;95544.31;6149798;23;20237;-88
2023/06/20 07:57:02;;;;;;;6.18;3.75;;;;;;;25.22;59.62;95545.03;6150470;23;20226;-88
2023/06/20 07:59:28;;;;;;;3.88;3.58;;;;;;;25.25;60.19;95545.31;6150525;23;20178;-89
2023/06/20 08:01:55;;;;;;;4.55;4.00;;;;;;;25.39;59.16;95551.59;6150202;23;20662;-88
2023/06/20 08:04:21;;;;;;;4.18;3.83;;;;;;;25.43;58.07;95551.81;6152392;23;20178;-89
2023/06/20 08:06:48;;;;;;;3.95;3.65;;;;;;;25.46;57.46;95553.91;6150899;23;20199;-89
2023/06/20 08:09:17;;;;;;;3.92;3.63;;;;;;;25.48;58.16;95549.16;6151880;23;20186;-88
2023/06/20 08:11:46;;;;;;;4.15;3.80;;;;;;;25.47;57.66;95550.22;6151901;23;20198;-88
2023/06/20 08:14:14;;;;;;;3.85;3.55;;;;;;;25.54;58.27;95547.31;6151971;23;20179;-88
2023/06/20 08:16:48;;;;;;;4.30;3.95;;;;;;;25.75;57.27;95554.88;6151858;23;20195;-89
2023/06/20 08:19:15;;;;;;;3.88;3.55;;;;;;;25.89;57.14;95547.13;6151652;23;20795;-88
2023/06/20 08:21:41;;;;;;;3.70;3.40;;;;;;;26.24;56.14;95548.72;6151451;23;20171;-88
2023/06/20 08:24:08;;;;;;;5.05;3.25;;;;;;;26.45;54.42;95550.16;6152326;23;20512;-88
2023/06/20 08:26:35;;;;;;;3.75;3.45;;;;;;;26.66;52.81;95553.41;6151503;23;20255;-88
2023/06/20 08:29:01;;;;;;;3.60;3.30;;;;;;;26.77;52.03;95559.38;6151856;23;20179;-88
2023/06/20 08:31:36;;;;;;;3.80;3.50;;;;;;;27.02;51.84;95548.59;6151522;23;20766;-89
2023/06/20 08:34:03;;;;;;;3.13;2.83;;;;;;;27.21;50.45;95547.84;6151412;23;20514;-89
2023/06/20 08:36:29;;;;;;;4.28;2.90;;;;;;;27.40;50.39;95540.75;6151495;23;20206;-88
2023/06/20 08:38:55;;;;;;;3.25;2.95;;;;;;;27.47;48.98;95549.91;6151153;23;20175;-89
2023/06/20 08:41:25;;;;;;;3.83;3.10;;;;;;;27.51;48.34;95543.00;6151669;23;20250;-89
2023/06/20 08:43:51;;;;;;;4.07;3.05;;;;;;;27.52;48.51;95551.69;6151482;23;20175;-89
2023/06/20 08:46:24;;;;;;;3.25;2.95;;;;;;;27.55;47.84;95537.91;6151374;23;20195;-89
2023/06/20 08:48:52;;;;;;;3.38;2.85;;;;;;;27.83;48.26;95537.03;6151214;23;20155;-89
2023/06/20 08:51:21;;;;;;;3.22;2.92;;;;;;;28.06;47.83;95527.44;6150739;23;20195;-88
2023/06/20 08:53:48;;;;;;;3.65;2.50;;;;;;;28.20;45.81;95522.22;6150869;23;20175;-89
2023/06/20 08:56:15;;;;;;;3.50;2.47;;;;;;;28.43;44.20;95520.50;6151195;23;20202;-88
2023/06/20 08:58:42;;;;;;;2.50;2.30;;;;;;;28.61;44.92;95516.22;6151256;23;20175;-89
2023/06/20 09:01:08;;;;;;;2.88;2.60;;;;;;;28.69;42.51;95516.31;6151147;23;20190;-89
2023/06/20 09:03:35;;;;;;;5.78;2.03;;;;;;;28.66;40.83;95514.28;6151339;23;20526;-89
2023/06/20 09:06:03;;;;;;;3.20;2.45;;;;;;;28.71;42.08;95513.38;6150469;23;20199;-89
2023/06/20 09:08:37;;;;;;;2.75;2.20;;;;;;;28.86;41.33;95503.31;6150720;23;20178;-89
2023/06/20 09:11:07;;;;;;;3.45;2.47;;;;;;;28.98;41.58;95512.66;6150531;23;20385;-89
2023/06/20 09:13:34;;;;;;;2.97;2.25;;;;;;;29.07;41.79;95509.00;6151663;23;20178;-89
2023/06/20 09:16:05;;;;;;;2.60;2.40;;;;;;;29.27;41.70;95501.72;6151427;23;20678;-89
2023/06/20 09:18:33;;;;;;;3.15;2.60;;;;;;;29.47;41.89;95498.69;6151093;23;20504;-89
2023/06/20 09:20:59;;;;;;;3.35;2.40;;;;;;;29.53;41.78;95500.16;6151576;23;20177;-89
2023/06/20 09:23:31;;;;;;;5.32;2.70;;;;;;;29.70;40.37;95487.03;6151486;23;20194;-90
2023/06/20 09:25:57;;;;;;;3.80;2.70;;;;;;;29.74;40.37;95484.56;6149978;23;20201;-89
2023/06/20 09:28:24;;;;;;;3.22;2.95;;;;;;;29.90;40.38;95483.91;6150995;23;20179;-88
2023/06/20 09:30:51;;;;;;;4.40;2.92;;;;;;;29.97;40.49;95480.84;6150563;23;20625;-89
2023/06/20 09:33:17;;;;;;;3.60;2.80;;;;;;;30.15;40.12;95482.56;6150821;23;20186;-89
2023/06/20 09:35:45;;;;;;;2.75;2.55;;;;;;;30.26;39.69;95488.41;6150577;23;20733;-89
2023/06/20 09:38:12;;;;;;;2.45;2.20;;;;;;;30.18;37.38;95483.84;6151344;23;20175;-88
2023/06/20 09:40:44;;;;;;;4.70;2.15;;;;;;;30.05;37.16;95479.34;6150634;23;20596;-89
2023/06/20 09:43:11;;;;;;;2.70;1.85;;;;;;;30.09;36.68;95480.31;6150474;23;20174;-89
2023/06/20 09:46:02;;;;;;;3.17;2.40;;;;;;;30.22;36.64;95474.94;6150493;23;20202;-88
2023/06/20 09:48:35;;;;;;;2.30;1.88;;;;;;;30.38;36.13;95470.03;6150831;23;20175;-89
2023/06/20 09:51:07;;;;;;;3.00;2.20;;;;;;;30.47;36.22;95470.06;6150886;23;20539;-89
2023/06/20 09:53:42;;;;;;;3.47;2.28;;;;;;;30.58;36.19;95467.97;6151310;23;20235;-89
2023/06/20 09:56:11;;;;;;;2.90;2.20;;;;;;;30.69;36.35;95462.06;6150584;23;20198;-89
2023/06/20 09:58:41;;;;;;;2.70;2.22;;;;;;;30.72;35.60;95469.44;6149681;23;20749;-89
2023/06/20 10:01:16;;;;;;;3.92;2.58;;;;;;;30.96;36.62;95463.75;6150249;23;20506;-89
2023/06/20 10:03:43;;;;;;;3.80;2.40;;;;;;;31.11;36.16;95455.34;6150374;23;20182;-89
2023/06/20 10:06:10;;;;;;;3.78;2.67;;;;;;;31.23;35.88;95452.88;6150411;23;20218;-90
2023/06/20 10:08:36;;;;;;;3.25;2.35;;;;;;;31.33;35.25;95459.78;6150000;23;20253;-89
2023/06/20 10:11:05;;;;;;;3.22;2.50;;;;;;;31.31;34.66;95448.66;6150167;23;20508;-89
2023/06/20 10:13:46;;;;;;;3.72;2.50;;;;;;;31.39;34.15;95444.44;6150474;23;20680;-89
2023/06/20 10:16:14;;;;;;;4.45;2.70;;;;;;;31.35;34.29;95440.84;6149298;23;20187;-89
2023/06/20 10:18:44;;;;;;;2.75;2.50;;;;;;;31.49;34.29;95444.13;6149941;23;20178;-89
2023/06/20 10:21:14;;;;;;;3.60;2.75;;;;;;;31.64;34.49;95445.53;6150162;23;20182;-89
2023/06/20 10:23:41;;;;;;;3.58;2.75;;;;;;;31.69;34.44;95443.53;6150074;23;20155;-90
2023/06/20 10:26:12;;;;;;;3.67;2.70;;;;;;;31.66;34.19;95441.50;6150467;23;20195;-88
2023/06/20 10:28:56;;;;;;;6.72;2.80;;;;;;;31.77;33.64;95450.72;6160216;23;20179;-87
2023/06/20 10:31:23;;;;;;;2.80;2.30;;;;;;;31.93;33.91;95438.53;6157911;23;20183;-86
2023/06/20 10:33:49;;;;;;;2.92;2.63;;;;;;;32.01;33.74;95428.16;6158550;23;20179;-86
2023/06/20 10:36:21;;;;;;;3.13;2.90;;;;;;;32.08;34.00;95423.13;6155761;23;20198;-90
2023/06/20 10:39:22;;;;;;;3.42;2.70;;;;;;;32.03;33.87;95418.75;6149611;23;20163;-89
2023/06/20 10:41:52;;;;;;;4.32;2.35;;;;;;;32.17;33.89;95416.66;6151018;23;20182;-90
2023/06/20 10:44:36;;;;;;;4.28;2.97;;;;;;;31.99;33.10;95417.03;6151502;23;20261;-89
2023/06/20 10:47:14;;;;;;;3.20;2.72;;;;;;;32.16;33.40;95404.44;6169864;23;20198;-90
2023/06/20 10:49:43;;;;;;;3.75;2.83;;;;;;;32.31;33.53;95408.53;6166993;23;20155;-89
2023/06/20 10:52:10;;;;;;;4.43;2.75;;;;;;;32.43;33.04;95410.50;6150765;23;20658;-90
2023/06/20 10:54:39;;;;;;;4.75;3.10;;;;;;;32.45;31.80;95410.97;6150536;23;20194;-91
2023/06/20 10:57:20;;;;;;;3.20;3.00;;;;;;;32.44;31.83;95407.53;6149839;23;20198;-90
2023/06/20 10:59:53;;;;;;;5.03;2.33;;;;;;;32.56;32.37;95396.19;6150238;23;20261;-90
2023/06/20 11:02:34;;;;;;;;;;;;;;;;;;;;;
2023/06/20 11:05:04;;;;;;;3.10;2.80;;;;;;;32.45;32.18;95398.44;6150285;23;20178;-90
2023/06/20 11:07:30;;;;;;;3.58;2.78;;;;;;;32.52;32.50;95388.03;6149776;23;20273;-90
2023/06/20 11:09:57;;;;;;;3.88;3.08;;;;;;;32.50;31.98;95392.16;6150247;23;20518;-90
2023/06/20 11:12:28;;;;;;;5.20;2.88;;;;;;;32.41;31.77;95381.50;6150080;23;20194;-90
2023/06/20 11:14:57;;;;;;;3.95;2.90;;;;;;;32.40;32.04;95390.59;6149843;23;20205;-90
2023/06/20 11:17:35;;;;;;;3.00;2.70;;;;;;;32.59;32.14;95376.88;6149824;23;20245;-91
2023/06/20 11:20:09;;;;;;;3.10;2.75;;;;;;;32.77;31.30;95378.38;6149289;23;20191;-90
2023/06/20 11:22:36;;;;;;;3.15;2.75;;;;;;;32.77;30.95;95375.72;6149247;23;20176;-90
2023/06/20 11:25:03;;;;;;;4.35;3.10;;;;;;;32.73;30.53;95376.63;6150094;23;20171;-90
2023/06/20 11:27:31;;;;;;;3.47;2.53;;;;;;;32.83;30.84;95363.75;6149923;23;20253;-90
2023/06/20 11:30:04;;;;;;;4.10;3.10;;;;;;;32.86;30.78;95367.66;6149931;23;20203;-91
2023/06/20 11:32:31;;;;;;;3.53;2.88;;;;;;;32.95;30.87;95361.16;6149736;23;20174;-91
2023/06/20 11:34:59;;;;;;;3.70;2.92;;;;;;;33.11;30.60;95357.91;6149522;23;20179;-91
2023/06/20 11:37:32;;;;;;;6.85;2.70;;;;;;;33.18;30.42;95356.28;6151101;23;20583;-91
2023/06/20 11:40:04;;;;;;;3.85;2.80;;;;;;;33.21;30.47;95352.97;6151808;23;20206;-91